sensor_id;sensor_type;location;lat;lon;timestamp;temperature;humidity
9699;DHT22;10089;47.876;8.346;2023-02-10T00:01:26;-5.20;1.00
9699;DHT22;10089;47.876;8.346;2023-02-10T00:03:52;-5.20;1.00
9699;DHT22;10089;47.876;8.346;2023-02-10T00:06:19;-5.10;1.00
9699;DHT22;10089;47.876;8.346;2023-02-10T00:08:49;-5.10;1.00
9699;DHT22;10089;47.876;8.346;2023-02-10T00:11:15;-5.10;1.00
9699;DHT22;10089;47.876;8.346;2023-02-10T00:13:42;-5.20;1.00
9699;DHT22;10089;47.876;8.346;2023-02-10T00:16:11;-5.10;1.00
9699;DHT22;10089;47.876;8.346;2023-02-10T00:18:36;-5.10;1.00
9699;DHT22;10089;47.876;8.346;2023-02-10T00:21:07;-5.10;1.00
9699;DHT22;10089;47.876;8.346;2023-02-10T00:23:33;-5.10;1.00
9699;DHT22;10089;47.876;8.346;2023-02-10T00:26:02;-5.10;1.00
9699;DHT22;10089;47.876;8.346;2023-02-10T00:28:28;-5.10;1.00
9699;DHT22;10089;47.876;8.346;2023-02-10T00:30:53;-5.10;9.30
9699;DHT22;10089;47.876;8.346;2023-02-10T00:33:19;-5.20;9.90
9699;DHT22;10089;47.876;8.346;2023-02-10T00:35:45;-5.20;14.80
9699;DHT22;10089;47.876;8.346;2023-02-10T00:38:11;-5.10;1.00
9699;DHT22;10089;47.876;8.346;2023-02-10T00:40:36;-5.10;1.00
9699;DHT22;10089;47.876;8.346;2023-02-10T00:43:02;-5.20;1.00
9699;DHT22;10089;47.876;8.346;2023-02-10T00:45:27;-5.30;1.00
9699;DHT22;10089;47.876;8.346;2023-02-10T00:47:53;-5.30;9.40
9699;DHT22;10089;47.876;8.346;2023-02-10T00:50:19;-5.30;26.60
9699;DHT22;10089;47.876;8.346;2023-02-10T00:52:45;-5.20;22.70
9699;DHT22;10089;47.876;8.346;2023-02-10T00:55:10;-5.20;2.00
9699;DHT22;10089;47.876;8.346;2023-02-10T00:57:36;-5.30;1.00
9699;DHT22;10089;47.876;8.346;2023-02-10T01:00:02;-5.30;2.10
9699;DHT22;10089;47.876;8.346;2023-02-10T01:02:27;-5.30;31.50
9699;DHT22;10089;47.876;8.346;2023-02-10T01:04:53;-5.30;74.40
9699;DHT22;10089;47.876;8.346;2023-02-10T01:07:19;-5.10;99.90
9699;DHT22;10089;47.876;8.346;2023-02-10T01:09:44;-5.00;99.90
9699;DHT22;10089;47.876;8.346;2023-02-10T01:12:10;-4.90;99.90
9699;DHT22;10089;47.876;8.346;2023-02-10T01:14:36;-4.80;90.30
9699;DHT22;10089;47.876;8.346;2023-02-10T01:17:01;-4.80;88.00
9699;DHT22;10089;47.876;8.346;2023-02-10T01:19:27;-4.80;92.80
9699;DHT22;10089;47.876;8.346;2023-02-10T01:21:53;-4.90;83.50
9699;DHT22;10089;47.876;8.346;2023-02-10T01:24:18;-4.80;59.10
9699;DHT22;10089;47.876;8.346;2023-02-10T01:26:44;-4.90;57.90
9699;DHT22;10089;47.876;8.346;2023-02-10T01:29:09;-4.90;48.10
9699;DHT22;10089;47.876;8.346;2023-02-10T01:31:35;-4.90;31.50
9699;DHT22;10089;47.876;8.346;2023-02-10T01:34:01;-5.10;5.00
9699;DHT22;10089;47.876;8.346;2023-02-10T01:36:27;-5.10;6.70
9699;DHT22;10089;47.876;8.346;2023-02-10T01:38:52;-5.10;15.40
9699;DHT22;10089;47.876;8.346;2023-02-10T01:41:21;-5.20;24.80
9699;DHT22;10089;47.876;8.346;2023-02-10T01:46:19;-5.20;23.00
9699;DHT22;10089;47.876;8.346;2023-02-10T01:48:44;-5.20;32.10
9699;DHT22;10089;47.876;8.346;2023-02-10T01:51:10;-5.30;17.40
9699;DHT22;10089;47.876;8.346;2023-02-10T01:53:37;-5.30;43.50
9699;DHT22;10089;47.876;8.346;2023-02-10T01:56:04;-5.30;42.30
9699;DHT22;10089;47.876;8.346;2023-02-10T01:58:31;-5.30;18.70
9699;DHT22;10089;47.876;8.346;2023-02-10T02:00:59;-5.30;26.80
9699;DHT22;10089;47.876;8.346;2023-02-10T02:03:24;-5.30;22.40
9699;DHT22;10089;47.876;8.346;2023-02-10T02:05:51;-5.40;22.00
9699;DHT22;10089;47.876;8.346;2023-02-10T02:11:23;-5.50;1.00
9699;DHT22;10089;47.876;8.346;2023-02-10T02:28:35;-5.70;17.50
9699;DHT22;10089;47.876;8.346;2023-02-10T02:31:01;-5.80;31.00
9699;DHT22;10089;47.876;8.346;2023-02-10T02:33:39;-5.90;42.60
9699;DHT22;10089;47.876;8.346;2023-02-10T02:36:16;-5.80;72.90
9699;DHT22;10089;47.876;8.346;2023-02-10T02:38:43;-5.80;50.90
9699;DHT22;10089;47.876;8.346;2023-02-10T02:41:10;-5.90;43.70
9699;DHT22;10089;47.876;8.346;2023-02-10T02:43:37;-6.00;42.60
9699;DHT22;10089;47.876;8.346;2023-02-10T02:46:17;-6.10;87.40
9699;DHT22;10089;47.876;8.346;2023-02-10T02:48:56;-6.00;99.90
9699;DHT22;10089;47.876;8.346;2023-02-10T02:54:26;-5.40;99.90
9699;DHT22;10089;47.876;8.346;2023-02-10T03:00:12;-5.70;99.90
9699;DHT22;10089;47.876;8.346;2023-02-10T03:02:39;-5.70;99.90
9699;DHT22;10089;47.876;8.346;2023-02-10T03:05:10;-5.80;99.90
9699;DHT22;10089;47.876;8.346;2023-02-10T03:07:36;-5.90;63.00
9699;DHT22;10089;47.876;8.346;2023-02-10T03:10:03;-5.90;59.60
9699;DHT22;10089;47.876;8.346;2023-02-10T03:12:29;-5.90;66.10
9699;DHT22;10089;47.876;8.346;2023-02-10T03:14:55;-6.00;37.30
9699;DHT22;10089;47.876;8.346;2023-02-10T03:17:21;-6.10;43.50
9699;DHT22;10089;47.876;8.346;2023-02-10T03:19:46;-6.10;42.10
9699;DHT22;10089;47.876;8.346;2023-02-10T03:22:12;-6.10;34.00
9699;DHT22;10089;47.876;8.346;2023-02-10T03:24:38;-6.20;40.50
9699;DHT22;10089;47.876;8.346;2023-02-10T03:27:03;-6.10;40.20
9699;DHT22;10089;47.876;8.346;2023-02-10T03:29:31;-6.20;64.40
9699;DHT22;10089;47.876;8.346;2023-02-10T03:31:56;-6.20;99.90
9699;DHT22;10089;47.876;8.346;2023-02-10T03:34:23;-6.20;99.90
9699;DHT22;10089;47.876;8.346;2023-02-10T03:36:49;-6.20;99.90
9699;DHT22;10089;47.876;8.346;2023-02-10T03:39:14;-6.20;99.90
9699;DHT22;10089;47.876;8.346;2023-02-10T03:41:40;-6.30;99.90
9699;DHT22;10089;47.876;8.346;2023-02-10T03:44:05;-6.30;99.90
9699;DHT22;10089;47.876;8.346;2023-02-10T03:46:31;-6.30;99.90
9699;DHT22;10089;47.876;8.346;2023-02-10T03:48:57;-6.30;99.90
9699;DHT22;10089;47.876;8.346;2023-02-10T03:51:22;-6.20;99.90
9699;DHT22;10089;47.876;8.346;2023-02-10T03:53:48;-6.20;99.90
9699;DHT22;10089;47.876;8.346;2023-02-10T03:56:14;-6.20;99.90
9699;DHT22;10089;47.876;8.346;2023-02-10T03:58:40;-6.30;99.90
9699;DHT22;10089;47.876;8.346;2023-02-10T04:01:09;-6.20;99.90
9699;DHT22;10089;47.876;8.346;2023-02-10T04:03:35;-6.30;99.90
9699;DHT22;10089;47.876;8.346;2023-02-10T04:06:00;-6.30;99.90
9699;DHT22;10089;47.876;8.346;2023-02-10T04:08:26;-6.30;83.20
9699;DHT22;10089;47.876;8.346;2023-02-10T04:10:52;-6.40;48.20
9699;DHT22;10089;47.876;8.346;2023-02-10T04:13:17;-6.50;48.20
9699;DHT22;10089;47.876;8.346;2023-02-10T04:15:43;-6.40;99.90
9699;DHT22;10089;47.876;8.346;2023-02-10T04:18:08;-6.30;99.90
9699;DHT22;10089;47.876;8.346;2023-02-10T04:20:34;-6.30;99.90
9699;DHT22;10089;47.876;8.346;2023-02-10T04:23:00;-6.40;99.90
9699;DHT22;10089;47.876;8.346;2023-02-10T04:25:25;-6.40;99.90
9699;DHT22;10089;47.876;8.346;2023-02-10T04:27:51;-6.40;99.90
9699;DHT22;10089;47.876;8.346;2023-02-10T04:30:17;-6.40;99.90
9699;DHT22;10089;47.876;8.346;2023-02-10T04:32:42;-6.50;99.90
9699;DHT22;10089;47.876;8.346;2023-02-10T04:35:08;-6.50;99.90
9699;DHT22;10089;47.876;8.346;2023-02-10T04:37:34;-6.40;99.90
9699;DHT22;10089;47.876;8.346;2023-02-10T04:39:59;-6.40;99.90
9699;DHT22;10089;47.876;8.346;2023-02-10T04:42:25;-6.50;94.20
9699;DHT22;10089;47.876;8.346;2023-02-10T04:44:59;-6.50;54.40
9699;DHT22;10089;47.876;8.346;2023-02-10T04:47:26;-6.50;78.60
9699;DHT22;10089;47.876;8.346;2023-02-10T04:49:52;-6.60;76.40
9699;DHT22;10089;47.876;8.346;2023-02-10T04:52:17;-6.60;99.90
9699;DHT22;10089;47.876;8.346;2023-02-10T04:54:43;-6.60;99.90
9699;DHT22;10089;47.876;8.346;2023-02-10T04:57:09;-6.50;99.90
9699;DHT22;10089;47.876;8.346;2023-02-10T04:59:34;-6.60;99.90
9699;DHT22;10089;47.876;8.346;2023-02-10T05:02:00;-6.50;99.90
9699;DHT22;10089;47.876;8.346;2023-02-10T05:04:27;-6.60;99.90
9699;DHT22;10089;47.876;8.346;2023-02-10T05:06:52;-6.70;99.90
9699;DHT22;10089;47.876;8.346;2023-02-10T05:09:19;-6.60;99.90
9699;DHT22;10089;47.876;8.346;2023-02-10T05:11:44;-6.50;99.90
9699;DHT22;10089;47.876;8.346;2023-02-10T05:14:10;-6.50;99.90
9699;DHT22;10089;47.876;8.346;2023-02-10T05:16:36;-6.60;99.90
9699;DHT22;10089;47.876;8.346;2023-02-10T05:19:02;-6.60;99.90
9699;DHT22;10089;47.876;8.346;2023-02-10T05:21:27;-6.70;99.90
9699;DHT22;10089;47.876;8.346;2023-02-10T05:23:53;-6.70;99.90
9699;DHT22;10089;47.876;8.346;2023-02-10T05:26:18;-6.60;99.90
9699;DHT22;10089;47.876;8.346;2023-02-10T05:28:44;-6.60;99.90
9699;DHT22;10089;47.876;8.346;2023-02-10T05:31:10;-6.60;99.90
9699;DHT22;10089;47.876;8.346;2023-02-10T05:33:35;-6.60;99.90
9699;DHT22;10089;47.876;8.346;2023-02-10T05:36:01;-6.60;99.90
9699;DHT22;10089;47.876;8.346;2023-02-10T05:38:27;-6.60;99.90
9699;DHT22;10089;47.876;8.346;2023-02-10T05:40:52;-6.60;99.90
9699;DHT22;10089;47.876;8.346;2023-02-10T05:43:18;-6.60;99.90
9699;DHT22;10089;47.876;8.346;2023-02-10T05:45:46;-6.60;99.90
9699;DHT22;10089;47.876;8.346;2023-02-10T05:48:11;-6.60;99.90
9699;DHT22;10089;47.876;8.346;2023-02-10T05:50:37;-6.60;99.90
9699;DHT22;10089;47.876;8.346;2023-02-10T05:53:05;-6.50;99.90
9699;DHT22;10089;47.876;8.346;2023-02-10T05:55:31;-6.50;99.90
9699;DHT22;10089;47.876;8.346;2023-02-10T05:57:57;-6.60;99.90
9699;DHT22;10089;47.876;8.346;2023-02-10T06:00:23;-6.50;99.90
9699;DHT22;10089;47.876;8.346;2023-02-10T06:02:49;-6.50;99.90
9699;DHT22;10089;47.876;8.346;2023-02-10T06:05:15;-6.50;99.90
9699;DHT22;10089;47.876;8.346;2023-02-10T06:07:40;-6.50;99.90
9699;DHT22;10089;47.876;8.346;2023-02-10T06:10:07;-6.50;99.90
9699;DHT22;10089;47.876;8.346;2023-02-10T06:12:32;-6.50;99.90
9699;DHT22;10089;47.876;8.346;2023-02-10T06:14:58;-6.50;99.90
9699;DHT22;10089;47.876;8.346;2023-02-10T06:17:25;-6.50;99.90
9699;DHT22;10089;47.876;8.346;2023-02-10T06:19:53;-6.50;99.90
9699;DHT22;10089;47.876;8.346;2023-02-10T06:22:18;-6.50;99.90
9699;DHT22;10089;47.876;8.346;2023-02-10T06:24:44;-6.50;99.90
9699;DHT22;10089;47.876;8.346;2023-02-10T06:27:10;-6.50;99.90
9699;DHT22;10089;47.876;8.346;2023-02-10T06:29:35;-6.50;99.90
9699;DHT22;10089;47.876;8.346;2023-02-10T06:32:01;-6.50;99.90
9699;DHT22;10089;47.876;8.346;2023-02-10T06:34:27;-6.50;99.90
9699;DHT22;10089;47.876;8.346;2023-02-10T06:36:52;-6.50;99.90
9699;DHT22;10089;47.876;8.346;2023-02-10T06:39:31;-6.60;99.90
9699;DHT22;10089;47.876;8.346;2023-02-10T06:41:57;-6.60;99.90
9699;DHT22;10089;47.876;8.346;2023-02-10T06:44:25;-6.50;99.90
9699;DHT22;10089;47.876;8.346;2023-02-10T06:46:50;-6.50;99.90
9699;DHT22;10089;47.876;8.346;2023-02-10T06:49:16;-6.50;99.90
9699;DHT22;10089;47.876;8.346;2023-02-10T06:51:42;-6.50;99.90
9699;DHT22;10089;47.876;8.346;2023-02-10T06:54:07;-6.50;99.90
9699;DHT22;10089;47.876;8.346;2023-02-10T06:56:33;-6.50;99.90
9699;DHT22;10089;47.876;8.346;2023-02-10T06:58:59;-6.50;99.90
9699;DHT22;10089;47.876;8.346;2023-02-10T07:01:27;-6.50;99.90
9699;DHT22;10089;47.876;8.346;2023-02-10T07:03:53;-6.50;99.90
9699;DHT22;10089;47.876;8.346;2023-02-10T07:06:18;-6.40;99.90
9699;DHT22;10089;47.876;8.346;2023-02-10T07:08:44;-6.40;99.90
9699;DHT22;10089;47.876;8.346;2023-02-10T07:11:11;-6.40;99.90
9699;DHT22;10089;47.876;8.346;2023-02-10T07:13:36;-6.40;99.90
9699;DHT22;10089;47.876;8.346;2023-02-10T07:16:02;-6.40;99.90
9699;DHT22;10089;47.876;8.346;2023-02-10T07:18:28;-6.40;99.90
9699;DHT22;10089;47.876;8.346;2023-02-10T07:20:55;-6.40;99.90
9699;DHT22;10089;47.876;8.346;2023-02-10T07:23:21;-6.40;99.90
9699;DHT22;10089;47.876;8.346;2023-02-10T07:25:47;-6.40;99.90
9699;DHT22;10089;47.876;8.346;2023-02-10T07:28:12;-6.40;99.90
9699;DHT22;10089;47.876;8.346;2023-02-10T07:30:38;-6.30;99.90
9699;DHT22;10089;47.876;8.346;2023-02-10T07:33:03;-6.20;99.90
9699;DHT22;10089;47.876;8.346;2023-02-10T07:35:29;-6.20;99.90
9699;DHT22;10089;47.876;8.346;2023-02-10T07:37:55;-6.10;99.90
9699;DHT22;10089;47.876;8.346;2023-02-10T07:40:20;-6.10;99.90
9699;DHT22;10089;47.876;8.346;2023-02-10T07:42:47;-5.90;99.90
9699;DHT22;10089;47.876;8.346;2023-02-10T07:45:12;-5.90;99.90
9699;DHT22;10089;47.876;8.346;2023-02-10T07:47:38;-5.70;99.90
9699;DHT22;10089;47.876;8.346;2023-02-10T07:50:04;-5.50;99.90
9699;DHT22;10089;47.876;8.346;2023-02-10T07:52:30;-5.50;99.90
9699;DHT22;10089;47.876;8.346;2023-02-10T07:54:56;-5.40;99.90
9699;DHT22;10089;47.876;8.346;2023-02-10T07:57:22;-5.20;99.90
9699;DHT22;10089;47.876;8.346;2023-02-10T07:59:47;-4.90;99.90
9699;DHT22;10089;47.876;8.346;2023-02-10T08:02:13;-4.60;99.90
9699;DHT22;10089;47.876;8.346;2023-02-10T08:04:38;-4.30;99.90
9699;DHT22;10089;47.876;8.346;2023-02-10T08:07:04;-4.10;99.90
9699;DHT22;10089;47.876;8.346;2023-02-10T08:09:30;-3.90;99.90
9699;DHT22;10089;47.876;8.346;2023-02-10T08:11:56;-3.50;99.90
9699;DHT22;10089;47.876;8.346;2023-02-10T08:14:21;-3.30;59.60
9699;DHT22;10089;47.876;8.346;2023-02-10T08:16:47;-3.10;1.00
9699;DHT22;10089;47.876;8.346;2023-02-10T08:19:13;-2.90;1.00
9699;DHT22;10089;47.876;8.346;2023-02-10T08:21:39;-2.70;1.10
9699;DHT22;10089;47.876;8.346;2023-02-10T08:24:07;-2.50;1.00
9699;DHT22;10089;47.876;8.346;2023-02-10T08:26:32;-2.20;1.00
9699;DHT22;10089;47.876;8.346;2023-02-10T08:29:00;-1.90;1.00
9699;DHT22;10089;47.876;8.346;2023-02-10T08:31:26;-1.70;1.00
9699;DHT22;10089;47.876;8.346;2023-02-10T08:33:52;-1.40;1.00
9699;DHT22;10089;47.876;8.346;2023-02-10T08:36:19;-1.30;1.00
9699;DHT22;10089;47.876;8.346;2023-02-10T08:38:46;-1.30;1.00
9699;DHT22;10089;47.876;8.346;2023-02-10T08:41:13;-1.10;1.00
9699;DHT22;10089;47.876;8.346;2023-02-10T08:43:38;-0.60;99.90
9699;DHT22;10089;47.876;8.346;2023-02-10T08:46:04;-0.30;1.00
9699;DHT22;10089;47.876;8.346;2023-02-10T08:48:30;0.60;1.00
9699;DHT22;10089;47.876;8.346;2023-02-10T08:50:57;0.20;99.90
9699;DHT22;10089;47.876;8.346;2023-02-10T08:53:22;0.60;1.00
9699;DHT22;10089;47.876;8.346;2023-02-10T08:55:59;1.10;99.90
9699;DHT22;10089;47.876;8.346;2023-02-10T08:58:25;1.10;99.90
9699;DHT22;10089;47.876;8.346;2023-02-10T09:00:51;1.70;99.90
9699;DHT22;10089;47.876;8.346;2023-02-10T09:03:16;2.20;80.50
9699;DHT22;10089;47.876;8.346;2023-02-10T09:05:42;0.70;1.00
9699;DHT22;10089;47.876;8.346;2023-02-10T09:08:09;1.20;99.90
9699;DHT22;10089;47.876;8.346;2023-02-10T09:10:35;2.10;1.00
9699;DHT22;10089;47.876;8.346;2023-02-10T09:13:00;1.00;99.90
9699;DHT22;10089;47.876;8.346;2023-02-10T09:15:26;1.70;99.90
9699;DHT22;10089;47.876;8.346;2023-02-10T09:17:51;2.40;99.90
9699;DHT22;10089;47.876;8.346;2023-02-10T09:20:17;2.90;99.90
9699;DHT22;10089;47.876;8.346;2023-02-10T09:22:43;2.60;1.00
9699;DHT22;10089;47.876;8.346;2023-02-10T09:25:09;2.80;99.90
9699;DHT22;10089;47.876;8.346;2023-02-10T09:27:35;1.90;99.90
9699;DHT22;10089;47.876;8.346;2023-02-10T09:30:00;2.70;99.90
9699;DHT22;10089;47.876;8.346;2023-02-10T09:32:26;2.30;1.00
9699;DHT22;10089;47.876;8.346;2023-02-10T09:34:52;3.10;99.90
9699;DHT22;10089;47.876;8.346;2023-02-10T09:37:17;2.60;1.00
9699;DHT22;10089;47.876;8.346;2023-02-10T09:39:43;3.30;1.00
9699;DHT22;10089;47.876;8.346;2023-02-10T09:42:22;3.90;1.00
9699;DHT22;10089;47.876;8.346;2023-02-10T09:45:10;4.00;99.90
9699;DHT22;10089;47.876;8.346;2023-02-10T09:48:00;4.20;99.90
9699;DHT22;10089;47.876;8.346;2023-02-10T09:50:59;3.20;99.90
9699;DHT22;10089;47.876;8.346;2023-02-10T09:53:29;3.60;99.90
9699;DHT22;10089;47.876;8.346;2023-02-10T09:55:57;3.80;99.90
9699;DHT22;10089;47.876;8.346;2023-02-10T09:58:42;4.30;99.90
9699;DHT22;10089;47.876;8.346;2023-02-10T10:01:28;3.30;99.90
9699;DHT22;10089;47.876;8.346;2023-02-10T10:04:02;3.20;99.90
9699;DHT22;10089;47.876;8.346;2023-02-10T10:09:40;4.10;99.90
9699;DHT22;10089;47.876;8.346;2023-02-10T10:12:13;3.30;99.90
9699;DHT22;10089;47.876;8.346;2023-02-10T10:14:41;3.40;99.90
9699;DHT22;10089;47.876;8.346;2023-02-10T10:20:28;2.70;99.90
9699;DHT22;10089;47.876;8.346;2023-02-10T10:22:56;2.60;99.90
9699;DHT22;10089;47.876;8.346;2023-02-10T10:26:36;3.40;99.90
9699;DHT22;10089;47.876;8.346;2023-02-10T10:31:26;4.30;99.90
9699;DHT22;10089;47.876;8.346;2023-02-10T10:37:19;4.80;99.90
9699;DHT22;10089;47.876;8.346;2023-02-10T10:39:49;4.50;99.90
9699;DHT22;10089;47.876;8.346;2023-02-10T10:45:42;4.80;99.90
9699;DHT22;10089;47.876;8.346;2023-02-10T10:48:25;4.40;99.90
9699;DHT22;10089;47.876;8.346;2023-02-10T10:50:57;5.30;96.00
9699;DHT22;10089;47.876;8.346;2023-02-10T10:53:49;5.10;1.00
9699;DHT22;10089;47.876;8.346;2023-02-10T10:56:54;5.40;1.00
9699;DHT22;10089;47.876;8.346;2023-02-10T11:02:57;4.70;1.00
9699;DHT22;10089;47.876;8.346;2023-02-10T11:05:32;5.30;1.00
9699;DHT22;10089;47.876;8.346;2023-02-10T11:07:59;5.30;1.00
9699;DHT22;10089;47.876;8.346;2023-02-10T11:10:47;5.10;1.00
9699;DHT22;10089;47.876;8.346;2023-02-10T11:13:18;5.20;1.00
9699;DHT22;10089;47.876;8.346;2023-02-10T11:15:46;4.80;1.00
9699;DHT22;10089;47.876;8.346;2023-02-10T11:18:17;4.90;1.00
9699;DHT22;10089;47.876;8.346;2023-02-10T11:20:54;4.50;1.00
9699;DHT22;10089;47.876;8.346;2023-02-10T11:23:20;4.90;1.00
9699;DHT22;10089;47.876;8.346;2023-02-10T11:26:03;5.20;1.00
9699;DHT22;10089;47.876;8.346;2023-02-10T11:28:31;6.00;1.00
9699;DHT22;10089;47.876;8.346;2023-02-10T11:31:01;4.90;1.00
9699;DHT22;10089;47.876;8.346;2023-02-10T11:33:30;4.90;1.00
9699;DHT22;10089;47.876;8.346;2023-02-10T11:36:08;4.90;1.00
9699;DHT22;10089;47.876;8.346;2023-02-10T11:38:37;4.90;1.00
9699;DHT22;10089;47.876;8.346;2023-02-10T11:41:08;5.20;1.00
9699;DHT22;10089;47.876;8.346;2023-02-10T11:43:46;5.70;1.00
9699;DHT22;10089;47.876;8.346;2023-02-10T11:46:30;6.00;1.00
9699;DHT22;10089;47.876;8.346;2023-02-10T11:48:58;5.70;1.00
9699;DHT22;10089;47.876;8.346;2023-02-10T11:51:25;5.50;1.00
9699;DHT22;10089;47.876;8.346;2023-02-10T11:53:51;6.00;1.00
9699;DHT22;10089;47.876;8.346;2023-02-10T12:02:45;5.90;1.00
9699;DHT22;10089;47.876;8.346;2023-02-10T12:10:22;5.40;1.00
9699;DHT22;10089;47.876;8.346;2023-02-10T12:13:11;5.70;1.00
9699;DHT22;10089;47.876;8.346;2023-02-10T12:18:55;5.40;1.00
9699;DHT22;10089;47.876;8.346;2023-02-10T12:27:20;6.50;1.00
9699;DHT22;10089;47.876;8.346;2023-02-10T12:40:47;6.70;1.00
9699;DHT22;10089;47.876;8.346;2023-02-10T12:46:47;6.30;1.00
9699;DHT22;10089;47.876;8.346;2023-02-10T12:49:24;6.00;1.00
9699;DHT22;10089;47.876;8.346;2023-02-10T12:52:14;6.30;99.90
9699;DHT22;10089;47.876;8.346;2023-02-10T12:57:39;6.30;99.90
9699;DHT22;10089;47.876;8.346;2023-02-10T13:00:14;6.40;99.90
9699;DHT22;10089;47.876;8.346;2023-02-10T13:03:00;5.30;99.90
9699;DHT22;10089;47.876;8.346;2023-02-10T13:05:38;5.70;1.00
9699;DHT22;10089;47.876;8.346;2023-02-10T13:08:09;6.10;99.90
9699;DHT22;10089;47.876;8.346;2023-02-10T13:13:22;5.80;99.90
9699;DHT22;10089;47.876;8.346;2023-02-10T13:15:59;5.90;99.90
9699;DHT22;10089;47.876;8.346;2023-02-10T13:18:30;5.80;99.90
9699;DHT22;10089;47.876;8.346;2023-02-10T13:26:35;5.50;99.90
9699;DHT22;10089;47.876;8.346;2023-02-10T13:29:25;5.40;99.90
9699;DHT22;10089;47.876;8.346;2023-02-10T13:34:35;5.60;1.00
9699;DHT22;10089;47.876;8.346;2023-02-10T13:37:14;5.60;99.90
9699;DHT22;10089;47.876;8.346;2023-02-10T13:39:57;5.60;99.90
9699;DHT22;10089;47.876;8.346;2023-02-10T13:43:05;4.80;1.00
9699;DHT22;10089;47.876;8.346;2023-02-10T13:45:32;5.20;99.90
9699;DHT22;10089;47.876;8.346;2023-02-10T13:48:07;5.20;99.90
9699;DHT22;10089;47.876;8.346;2023-02-10T13:50:54;4.60;99.90
9699;DHT22;10089;47.876;8.346;2023-02-10T13:58:52;4.30;1.00
9699;DHT22;10089;47.876;8.346;2023-02-10T14:03:56;4.30;1.00
9699;DHT22;10089;47.876;8.346;2023-02-10T14:06:36;4.40;1.00
9699;DHT22;10089;47.876;8.346;2023-02-10T14:09:05;4.20;1.00
9699;DHT22;10089;47.876;8.346;2023-02-10T14:11:38;4.30;1.00
9699;DHT22;10089;47.876;8.346;2023-02-10T14:19:32;4.20;1.00
9699;DHT22;10089;47.876;8.346;2023-02-10T14:22:00;4.00;1.00
9699;DHT22;10089;47.876;8.346;2023-02-10T14:24:29;4.10;1.00
9699;DHT22;10089;47.876;8.346;2023-02-10T14:27:04;4.20;1.00
9699;DHT22;10089;47.876;8.346;2023-02-10T14:29:33;4.20;1.00
9699;DHT22;10089;47.876;8.346;2023-02-10T14:32:02;4.20;1.00
9699;DHT22;10089;47.876;8.346;2023-02-10T14:34:32;4.30;1.00
9699;DHT22;10089;47.876;8.346;2023-02-10T14:37:18;4.10;1.00
9699;DHT22;10089;47.876;8.346;2023-02-10T14:39:58;4.00;1.00
9699;DHT22;10089;47.876;8.346;2023-02-10T14:42:29;4.00;1.00
9699;DHT22;10089;47.876;8.346;2023-02-10T14:45:00;3.80;1.00
9699;DHT22;10089;47.876;8.346;2023-02-10T14:47:35;4.00;1.00
9699;DHT22;10089;47.876;8.346;2023-02-10T14:50:03;4.10;1.00
9699;DHT22;10089;47.876;8.346;2023-02-10T14:52:30;4.10;1.00
9699;DHT22;10089;47.876;8.346;2023-02-10T14:57:56;3.90;1.00
9699;DHT22;10089;47.876;8.346;2023-02-10T15:00:23;3.90;1.00
9699;DHT22;10089;47.876;8.346;2023-02-10T15:02:56;3.80;1.00
9699;DHT22;10089;47.876;8.346;2023-02-10T15:05:22;3.80;1.00
9699;DHT22;10089;47.876;8.346;2023-02-10T15:07:52;3.70;1.00
9699;DHT22;10089;47.876;8.346;2023-02-10T15:10:32;3.60;1.00
9699;DHT22;10089;47.876;8.346;2023-02-10T15:12:59;3.60;1.00
9699;DHT22;10089;47.876;8.346;2023-02-10T15:18:06;3.50;1.00
9699;DHT22;10089;47.876;8.346;2023-02-10T15:20:33;3.40;1.00
9699;DHT22;10089;47.876;8.346;2023-02-10T15:31:01;3.10;1.00
9699;DHT22;10089;47.876;8.346;2023-02-10T15:39:05;2.90;1.00
9699;DHT22;10089;47.876;8.346;2023-02-10T15:44:27;2.80;1.00
9699;DHT22;10089;47.876;8.346;2023-02-10T15:47:19;2.70;1.00
9699;DHT22;10089;47.876;8.346;2023-02-10T15:49:46;2.60;1.00
9699;DHT22;10089;47.876;8.346;2023-02-10T15:52:18;2.80;1.00
9699;DHT22;10089;47.876;8.346;2023-02-10T15:54:45;2.40;1.00
9699;DHT22;10089;47.876;8.346;2023-02-10T15:57:12;2.70;1.00
9699;DHT22;10089;47.876;8.346;2023-02-10T15:59:38;2.80;1.00
9699;DHT22;10089;47.876;8.346;2023-02-10T16:02:06;2.50;1.00
9699;DHT22;10089;47.876;8.346;2023-02-10T16:04:34;2.80;20.50
9699;DHT22;10089;47.876;8.346;2023-02-10T16:07:00;2.30;99.90
9699;DHT22;10089;47.876;8.346;2023-02-10T16:09:33;2.70;99.90
9699;DHT22;10089;47.876;8.346;2023-02-10T16:12:00;2.00;99.90
9699;DHT22;10089;47.876;8.346;2023-02-10T16:14:27;1.90;99.90
9699;DHT22;10089;47.876;8.346;2023-02-10T16:16:55;2.30;99.90
9699;DHT22;10089;47.876;8.346;2023-02-10T16:19:23;2.40;99.90
9699;DHT22;10089;47.876;8.346;2023-02-10T16:21:51;2.40;99.90
9699;DHT22;10089;47.876;8.346;2023-02-10T16:24:22;2.60;99.90
9699;DHT22;10089;47.876;8.346;2023-02-10T16:26:48;1.80;1.00
9699;DHT22;10089;47.876;8.346;2023-02-10T16:29:15;1.80;1.00
9699;DHT22;10089;47.876;8.346;2023-02-10T16:31:41;2.40;1.00
9699;DHT22;10089;47.876;8.346;2023-02-10T16:34:08;1.70;1.00
9699;DHT22;10089;47.876;8.346;2023-02-10T16:36:34;1.50;1.00
9699;DHT22;10089;47.876;8.346;2023-02-10T16:39:00;1.40;1.00
9699;DHT22;10089;47.876;8.346;2023-02-10T16:41:25;1.50;1.00
9699;DHT22;10089;47.876;8.346;2023-02-10T16:43:51;1.60;1.00
9699;DHT22;10089;47.876;8.346;2023-02-10T16:46:17;1.90;1.00
9699;DHT22;10089;47.876;8.346;2023-02-10T16:48:45;1.40;1.00
9699;DHT22;10089;47.876;8.346;2023-02-10T16:51:11;1.40;95.80
9699;DHT22;10089;47.876;8.346;2023-02-10T16:53:37;1.60;99.90
9699;DHT22;10089;47.876;8.346;2023-02-10T16:56:03;1.30;99.90
9699;DHT22;10089;47.876;8.346;2023-02-10T16:58:30;1.20;1.00
9699;DHT22;10089;47.876;8.346;2023-02-10T17:00:56;1.10;1.00
9699;DHT22;10089;47.876;8.346;2023-02-10T17:03:22;1.00;43.80
9699;DHT22;10089;47.876;8.346;2023-02-10T17:05:48;0.90;99.90
9699;DHT22;10089;47.876;8.346;2023-02-10T17:08:14;1.00;99.90
9699;DHT22;10089;47.876;8.346;2023-02-10T17:10:41;0.90;1.00
9699;DHT22;10089;47.876;8.346;2023-02-10T17:13:07;0.80;1.00
9699;DHT22;10089;47.876;8.346;2023-02-10T17:15:33;0.70;1.00
9699;DHT22;10089;47.876;8.346;2023-02-10T17:17:59;0.60;99.90
9699;DHT22;10089;47.876;8.346;2023-02-10T17:20:30;0.60;99.90
9699;DHT22;10089;47.876;8.346;2023-02-10T17:22:56;1.50;99.90
9699;DHT22;10089;47.876;8.346;2023-02-10T17:25:23;0.50;1.00
9699;DHT22;10089;47.876;8.346;2023-02-10T17:27:50;0.50;99.90
9699;DHT22;10089;47.876;8.346;2023-02-10T17:30:18;0.50;1.00
9699;DHT22;10089;47.876;8.346;2023-02-10T17:32:46;0.40;1.00
9699;DHT22;10089;47.876;8.346;2023-02-10T17:35:14;0.40;99.90
9699;DHT22;10089;47.876;8.346;2023-02-10T17:37:44;0.30;99.90
9699;DHT22;10089;47.876;8.346;2023-02-10T17:40:17;0.20;99.90
9699;DHT22;10089;47.876;8.346;2023-02-10T17:42:50;0.10;1.00
9699;DHT22;10089;47.876;8.346;2023-02-10T17:45:29;0.00;1.00
9699;DHT22;10089;47.876;8.346;2023-02-10T17:48:00;0.20;99.90
9699;DHT22;10089;47.876;8.346;2023-02-10T17:50:25;0.10;1.00
9699;DHT22;10089;47.876;8.346;2023-02-10T17:52:54;0.20;1.00
9699;DHT22;10089;47.876;8.346;2023-02-10T17:55:20;0.20;99.90
9699;DHT22;10089;47.876;8.346;2023-02-10T17:57:45;0.10;1.00
9699;DHT22;10089;47.876;8.346;2023-02-10T18:00:12;0.10;1.00
9699;DHT22;10089;47.876;8.346;2023-02-10T18:02:38;0.10;22.40
9699;DHT22;10089;47.876;8.346;2023-02-10T18:05:03;0.10;1.00
9699;DHT22;10089;47.876;8.346;2023-02-10T18:07:29;0.00;5.40
9699;DHT22;10089;47.876;8.346;2023-02-10T18:09:55;-0.10;1.00
9699;DHT22;10089;47.876;8.346;2023-02-10T18:12:20;1.30;1.00
9699;DHT22;10089;47.876;8.346;2023-02-10T18:14:46;1.30;1.00
9699;DHT22;10089;47.876;8.346;2023-02-10T18:17:14;1.10;1.00
9699;DHT22;10089;47.876;8.346;2023-02-10T18:19:40;-0.20;1.00